sensor_id;sensor_type;location;lat;lon;timestamp;temperature;humidity
19972;DHT22;10147;16.402;102.848;2023-08-07T00:02:31;26.00;99.90
19972;DHT22;10147;16.402;102.848;2023-08-07T00:05:02;25.90;99.90
19972;DHT22;10147;16.402;102.848;2023-08-07T00:07:31;25.90;99.90
19972;DHT22;10147;16.402;102.848;2023-08-07T00:10:01;25.90;99.90
19972;DHT22;10147;16.402;102.848;2023-08-07T00:12:34;26.00;99.90
19972;DHT22;10147;16.402;102.848;2023-08-07T00:15:04;26.00;99.90
19972;DHT22;10147;16.402;102.848;2023-08-07T00:17:35;26.00;99.90
19972;DHT22;10147;16.402;102.848;2023-08-07T00:20:05;25.90;99.90
19972;DHT22;10147;16.402;102.848;2023-08-07T00:22:35;25.90;99.90
19972;DHT22;10147;16.402;102.848;2023-08-07T00:25:05;26.00;99.90
19972;DHT22;10147;16.402;102.848;2023-08-07T00:27:35;26.00;99.90
19972;DHT22;10147;16.402;102.848;2023-08-07T00:30:06;26.00;99.90
19972;DHT22;10147;16.402;102.848;2023-08-07T00:32:36;26.00;99.90
19972;DHT22;10147;16.402;102.848;2023-08-07T00:35:06;26.00;99.90
19972;DHT22;10147;16.402;102.848;2023-08-07T00:37:37;26.00;99.90
19972;DHT22;10147;16.402;102.848;2023-08-07T00:40:08;26.10;99.90
19972;DHT22;10147;16.402;102.848;2023-08-07T00:42:38;26.00;99.90
19972;DHT22;10147;16.402;102.848;2023-08-07T00:45:08;26.00;99.90
19972;DHT22;10147;16.402;102.848;2023-08-07T00:47:39;26.00;99.90
19972;DHT22;10147;16.402;102.848;2023-08-07T00:50:10;25.90;99.90
19972;DHT22;10147;16.402;102.848;2023-08-07T00:52:42;25.90;99.90
19972;DHT22;10147;16.402;102.848;2023-08-07T00:55:12;25.90;99.90
19972;DHT22;10147;16.402;102.848;2023-08-07T00:57:42;25.90;99.90
19972;DHT22;10147;16.402;102.848;2023-08-07T01:00:13;25.90;99.90
19972;DHT22;10147;16.402;102.848;2023-08-07T01:02:43;26.00;99.90
19972;DHT22;10147;16.402;102.848;2023-08-07T01:05:13;26.00;99.90
19972;DHT22;10147;16.402;102.848;2023-08-07T01:07:43;25.90;99.90
19972;DHT22;10147;16.402;102.848;2023-08-07T01:10:14;25.90;99.90
19972;DHT22;10147;16.402;102.848;2023-08-07T01:12:52;25.90;99.90
19972;DHT22;10147;16.402;102.848;2023-08-07T01:15:30;25.90;99.90
19972;DHT22;10147;16.402;102.848;2023-08-07T01:18:01;25.90;99.90
19972;DHT22;10147;16.402;102.848;2023-08-07T01:20:33;25.90;99.90
19972;DHT22;10147;16.402;102.848;2023-08-07T01:23:05;26.00;99.90
19972;DHT22;10147;16.402;102.848;2023-08-07T01:25:35;26.00;99.90
19972;DHT22;10147;16.402;102.848;2023-08-07T01:28:25;25.90;99.90
19972;DHT22;10147;16.402;102.848;2023-08-07T01:31:02;25.90;99.90
19972;DHT22;10147;16.402;102.848;2023-08-07T01:33:39;25.90;99.90
19972;DHT22;10147;16.402;102.848;2023-08-07T01:36:13;25.90;99.90
19972;DHT22;10147;16.402;102.848;2023-08-07T01:38:46;25.90;99.90
19972;DHT22;10147;16.402;102.848;2023-08-07T01:41:18;25.90;99.90
19972;DHT22;10147;16.402;102.848;2023-08-07T01:43:49;25.90;99.90
19972;DHT22;10147;16.402;102.848;2023-08-07T01:46:20;25.90;99.90
19972;DHT22;10147;16.402;102.848;2023-08-07T01:48:50;25.90;99.90
19972;DHT22;10147;16.402;102.848;2023-08-07T01:51:20;25.90;99.90
19972;DHT22;10147;16.402;102.848;2023-08-07T01:53:50;25.90;99.90
19972;DHT22;10147;16.402;102.848;2023-08-07T01:56:19;25.90;99.90
19972;DHT22;10147;16.402;102.848;2023-08-07T01:58:49;25.90;99.90
19972;DHT22;10147;16.402;102.848;2023-08-07T02:01:19;25.90;99.90
19972;DHT22;10147;16.402;102.848;2023-08-07T02:03:49;25.90;99.90
19972;DHT22;10147;16.402;102.848;2023-08-07T02:06:19;26.00;99.90
19972;DHT22;10147;16.402;102.848;2023-08-07T02:08:49;26.00;99.90
19972;DHT22;10147;16.402;102.848;2023-08-07T02:11:19;25.90;99.90
19972;DHT22;10147;16.402;102.848;2023-08-07T02:13:49;25.80;99.90
19972;DHT22;10147;16.402;102.848;2023-08-07T02:16:19;25.90;99.90
19972;DHT22;10147;16.402;102.848;2023-08-07T02:18:50;25.80;99.90
19972;DHT22;10147;16.402;102.848;2023-08-07T02:21:20;25.90;99.90
19972;DHT22;10147;16.402;102.848;2023-08-07T02:23:50;25.90;99.90
19972;DHT22;10147;16.402;102.848;2023-08-07T02:26:19;25.80;99.90
19972;DHT22;10147;16.402;102.848;2023-08-07T02:28:49;25.70;99.90
19972;DHT22;10147;16.402;102.848;2023-08-07T02:31:19;25.70;99.90
19972;DHT22;10147;16.402;102.848;2023-08-07T02:33:49;25.70;99.90
19972;DHT22;10147;16.402;102.848;2023-08-07T02:36:19;25.60;99.90
19972;DHT22;10147;16.402;102.848;2023-08-07T02:38:49;25.70;99.90
19972;DHT22;10147;16.402;102.848;2023-08-07T02:41:20;25.60;99.90
19972;DHT22;10147;16.402;102.848;2023-08-07T02:43:50;25.60;99.90
19972;DHT22;10147;16.402;102.848;2023-08-07T02:46:20;25.60;99.90
19972;DHT22;10147;16.402;102.848;2023-08-07T02:48:50;25.60;99.90
19972;DHT22;10147;16.402;102.848;2023-08-07T02:51:19;25.60;99.90
19972;DHT22;10147;16.402;102.848;2023-08-07T02:53:50;25.60;99.90
19972;DHT22;10147;16.402;102.848;2023-08-07T02:56:19;25.70;99.90
19972;DHT22;10147;16.402;102.848;2023-08-07T02:58:49;25.60;99.90
19972;DHT22;10147;16.402;102.848;2023-08-07T03:01:20;25.70;99.90
19972;DHT22;10147;16.402;102.848;2023-08-07T03:03:51;25.70;99.90
19972;DHT22;10147;16.402;102.848;2023-08-07T03:06:20;25.80;99.90
19972;DHT22;10147;16.402;102.848;2023-08-07T03:08:50;25.80;99.90
19972;DHT22;10147;16.402;102.848;2023-08-07T03:11:20;25.90;99.90
19972;DHT22;10147;16.402;102.848;2023-08-07T03:13:51;25.90;99.90
19972;DHT22;10147;16.402;102.848;2023-08-07T03:16:20;25.90;99.90
19972;DHT22;10147;16.402;102.848;2023-08-07T03:18:51;25.90;99.90
19972;DHT22;10147;16.402;102.848;2023-08-07T03:21:21;25.90;99.90
19972;DHT22;10147;16.402;102.848;2023-08-07T03:23:51;26.00;99.90
19972;DHT22;10147;16.402;102.848;2023-08-07T03:26:21;26.00;99.90
19972;DHT22;10147;16.402;102.848;2023-08-07T03:28:51;26.00;99.90
19972;DHT22;10147;16.402;102.848;2023-08-07T03:31:21;26.00;99.90
19972;DHT22;10147;16.402;102.848;2023-08-07T03:33:51;26.10;99.90
19972;DHT22;10147;16.402;102.848;2023-08-07T03:36:22;26.10;99.90
19972;DHT22;10147;16.402;102.848;2023-08-07T03:38:52;26.10;99.90
19972;DHT22;10147;16.402;102.848;2023-08-07T03:41:22;26.10;99.90
19972;DHT22;10147;16.402;102.848;2023-08-07T03:43:52;26.00;99.90
19972;DHT22;10147;16.402;102.848;2023-08-07T03:46:23;26.10;99.90
19972;DHT22;10147;16.402;102.848;2023-08-07T03:48:53;26.10;99.90
19972;DHT22;10147;16.402;102.848;2023-08-07T03:51:27;26.10;99.90
19972;DHT22;10147;16.402;102.848;2023-08-07T03:53:59;26.20;99.90
19972;DHT22;10147;16.402;102.848;2023-08-07T03:56:29;26.20;99.90
19972;DHT22;10147;16.402;102.848;2023-08-07T03:59:06;26.10;99.90
19972;DHT22;10147;16.402;102.848;2023-08-07T04:01:36;26.10;99.90
19972;DHT22;10147;16.402;102.848;2023-08-07T04:04:06;26.10;99.90
19972;DHT22;10147;16.402;102.848;2023-08-07T04:06:36;26.10;99.90
19972;DHT22;10147;16.402;102.848;2023-08-07T04:09:06;26.20;99.90
19972;DHT22;10147;16.402;102.848;2023-08-07T04:11:35;26.10;99.90
19972;DHT22;10147;16.402;102.848;2023-08-07T04:14:06;26.20;99.90
19972;DHT22;10147;16.402;102.848;2023-08-07T04:16:37;26.10;99.90
19972;DHT22;10147;16.402;102.848;2023-08-07T04:19:08;26.20;99.90
19972;DHT22;10147;16.402;102.848;2023-08-07T04:21:38;26.20;99.90
19972;DHT22;10147;16.402;102.848;2023-08-07T04:24:09;26.20;99.90
19972;DHT22;10147;16.402;102.848;2023-08-07T04:26:40;26.30;99.90
19972;DHT22;10147;16.402;102.848;2023-08-07T04:29:10;26.30;99.90
19972;DHT22;10147;16.402;102.848;2023-08-07T04:31:41;26.30;99.90
19972;DHT22;10147;16.402;102.848;2023-08-07T04:34:11;26.30;99.90
19972;DHT22;10147;16.402;102.848;2023-08-07T04:36:42;26.30;99.90
19972;DHT22;10147;16.402;102.848;2023-08-07T04:39:11;26.30;99.90
19972;DHT22;10147;16.402;102.848;2023-08-07T04:41:42;26.30;99.90
19972;DHT22;10147;16.402;102.848;2023-08-07T04:44:12;26.30;99.90
19972;DHT22;10147;16.402;102.848;2023-08-07T04:46:42;26.40;99.90
19972;DHT22;10147;16.402;102.848;2023-08-07T04:49:12;26.40;99.90
19972;DHT22;10147;16.402;102.848;2023-08-07T04:51:42;26.50;99.90
19972;DHT22;10147;16.402;102.848;2023-08-07T04:54:12;26.50;99.90
19972;DHT22;10147;16.402;102.848;2023-08-07T04:56:42;26.50;99.90
19972;DHT22;10147;16.402;102.848;2023-08-07T04:59:13;26.60;99.90
19972;DHT22;10147;16.402;102.848;2023-08-07T05:01:43;26.70;99.90
19972;DHT22;10147;16.402;102.848;2023-08-07T05:04:13;26.70;99.90
19972;DHT22;10147;16.402;102.848;2023-08-07T05:06:43;26.80;99.90
19972;DHT22;10147;16.402;102.848;2023-08-07T05:09:13;26.90;99.90
19972;DHT22;10147;16.402;102.848;2023-08-07T05:11:42;26.90;99.90
19972;DHT22;10147;16.402;102.848;2023-08-07T05:14:13;27.00;99.90
19972;DHT22;10147;16.402;102.848;2023-08-07T05:16:43;26.90;99.90
19972;DHT22;10147;16.402;102.848;2023-08-07T05:19:13;26.80;99.90
19972;DHT22;10147;16.402;102.848;2023-08-07T05:21:44;26.80;99.90
19972;DHT22;10147;16.402;102.848;2023-08-07T05:24:19;26.90;99.90
19972;DHT22;10147;16.402;102.848;2023-08-07T05:26:49;26.80;99.90
19972;DHT22;10147;16.402;102.848;2023-08-07T05:29:18;26.90;99.90
19972;DHT22;10147;16.402;102.848;2023-08-07T05:31:48;26.80;99.90
19972;DHT22;10147;16.402;102.848;2023-08-07T05:34:19;26.80;99.90
19972;DHT22;10147;16.402;102.848;2023-08-07T05:36:49;26.80;99.90
19972;DHT22;10147;16.402;102.848;2023-08-07T05:39:19;26.80;99.90
19972;DHT22;10147;16.402;102.848;2023-08-07T05:41:48;26.80;99.90
19972;DHT22;10147;16.402;102.848;2023-08-07T05:44:19;26.80;99.90
19972;DHT22;10147;16.402;102.848;2023-08-07T05:46:48;26.90;99.90
19972;DHT22;10147;16.402;102.848;2023-08-07T05:49:20;26.90;99.90
19972;DHT22;10147;16.402;102.848;2023-08-07T05:51:53;26.80;99.90
19972;DHT22;10147;16.402;102.848;2023-08-07T05:54:23;26.80;99.90
19972;DHT22;10147;16.402;102.848;2023-08-07T05:56:53;26.80;99.90
19972;DHT22;10147;16.402;102.848;2023-08-07T05:59:23;26.80;99.90
19972;DHT22;10147;16.402;102.848;2023-08-07T06:01:53;26.80;99.90
19972;DHT22;10147;16.402;102.848;2023-08-07T06:04:27;26.90;99.90
19972;DHT22;10147;16.402;102.848;2023-08-07T06:06:56;27.00;99.90
19972;DHT22;10147;16.402;102.848;2023-08-07T06:09:26;27.00;99.90
19972;DHT22;10147;16.402;102.848;2023-08-07T06:11:57;27.00;99.90
19972;DHT22;10147;16.402;102.848;2023-08-07T06:14:28;27.00;99.90
19972;DHT22;10147;16.402;102.848;2023-08-07T06:16:58;26.90;99.90
19972;DHT22;10147;16.402;102.848;2023-08-07T06:19:30;27.00;99.90
19972;DHT22;10147;16.402;102.848;2023-08-07T06:21:59;27.00;99.90
19972;DHT22;10147;16.402;102.848;2023-08-07T06:24:29;26.90;99.90
19972;DHT22;10147;16.402;102.848;2023-08-07T06:26:59;26.90;99.90
19972;DHT22;10147;16.402;102.848;2023-08-07T06:29:29;26.80;99.90
19972;DHT22;10147;16.402;102.848;2023-08-07T06:31:59;26.80;99.90
19972;DHT22;10147;16.402;102.848;2023-08-07T06:34:29;26.80;99.90
19972;DHT22;10147;16.402;102.848;2023-08-07T06:36:58;26.80;99.90
19972;DHT22;10147;16.402;102.848;2023-08-07T06:39:29;26.80;99.90
19972;DHT22;10147;16.402;102.848;2023-08-07T06:41:59;26.80;99.90
19972;DHT22;10147;16.402;102.848;2023-08-07T06:44:34;26.80;99.90
19972;DHT22;10147;16.402;102.848;2023-08-07T06:47:04;26.90;99.90
19972;DHT22;10147;16.402;102.848;2023-08-07T06:49:37;26.90;99.90
19972;DHT22;10147;16.402;102.848;2023-08-07T06:52:07;26.90;99.90
19972;DHT22;10147;16.402;102.848;2023-08-07T06:54:37;27.00;99.90
19972;DHT22;10147;16.402;102.848;2023-08-07T06:57:06;27.10;99.90
19972;DHT22;10147;16.402;102.848;2023-08-07T06:59:36;27.10;99.90
19972;DHT22;10147;16.402;102.848;2023-08-07T07:02:07;27.20;99.90
19972;DHT22;10147;16.402;102.848;2023-08-07T07:04:37;27.40;99.90
19972;DHT22;10147;16.402;102.848;2023-08-07T07:07:07;27.50;99.90
19972;DHT22;10147;16.402;102.848;2023-08-07T07:09:37;27.50;99.90
19972;DHT22;10147;16.402;102.848;2023-08-07T07:12:09;27.70;99.90
19972;DHT22;10147;16.402;102.848;2023-08-07T07:14:40;27.80;99.90
19972;DHT22;10147;16.402;102.848;2023-08-07T07:17:10;28.00;99.90
19972;DHT22;10147;16.402;102.848;2023-08-07T07:19:40;28.20;99.90
19972;DHT22;10147;16.402;102.848;2023-08-07T07:22:10;28.40;99.90
19972;DHT22;10147;16.402;102.848;2023-08-07T07:24:40;28.50;99.90
19972;DHT22;10147;16.402;102.848;2023-08-07T07:27:09;28.50;99.90
19972;DHT22;10147;16.402;102.848;2023-08-07T07:29:39;28.50;99.90
19972;DHT22;10147;16.402;102.848;2023-08-07T07:32:09;28.40;99.90
19972;DHT22;10147;16.402;102.848;2023-08-07T07:34:39;28.50;99.90
19972;DHT22;10147;16.402;102.848;2023-08-07T07:37:09;28.80;99.90
19972;DHT22;10147;16.402;102.848;2023-08-07T07:39:39;28.90;99.90
19972;DHT22;10147;16.402;102.848;2023-08-07T07:42:09;28.80;99.90
19972;DHT22;10147;16.402;102.848;2023-08-07T07:44:39;28.80;99.90
19972;DHT22;10147;16.402;102.848;2023-08-07T07:47:09;28.70;99.90
19972;DHT22;10147;16.402;102.848;2023-08-07T07:49:46;28.60;99.90
19972;DHT22;10147;16.402;102.848;2023-08-07T07:52:19;28.60;99.90
19972;DHT22;10147;16.402;102.848;2023-08-07T07:54:49;28.60;99.90
19972;DHT22;10147;16.402;102.848;2023-08-07T07:57:19;28.60;99.90
19972;DHT22;10147;16.402;102.848;2023-08-07T07:59:49;28.60;99.90
19972;DHT22;10147;16.402;102.848;2023-08-07T08:02:19;28.50;99.90
19972;DHT22;10147;16.402;102.848;2023-08-07T08:04:48;28.50;99.90
19972;DHT22;10147;16.402;102.848;2023-08-07T08:07:19;28.40;99.90
19972;DHT22;10147;16.402;102.848;2023-08-07T08:09:49;28.40;99.90
19972;DHT22;10147;16.402;102.848;2023-08-07T08:12:21;28.40;99.90
19972;DHT22;10147;16.402;102.848;2023-08-07T08:14:51;28.40;99.90
19972;DHT22;10147;16.402;102.848;2023-08-07T08:17:23;28.40;99.90
19972;DHT22;10147;16.402;102.848;2023-08-07T08:19:53;28.40;99.90
19972;DHT22;10147;16.402;102.848;2023-08-07T08:22:23;28.40;99.90
19972;DHT22;10147;16.402;102.848;2023-08-07T08:24:53;28.40;99.90
19972;DHT22;10147;16.402;102.848;2023-08-07T08:27:23;28.40;99.90
19972;DHT22;10147;16.402;102.848;2023-08-07T08:29:54;28.40;99.90
19972;DHT22;10147;16.402;102.848;2023-08-07T08:32:24;28.40;99.90
19972;DHT22;10147;16.402;102.848;2023-08-07T08:34:54;28.30;99.90
19972;DHT22;10147;16.402;102.848;2023-08-07T08:37:24;28.30;99.90
19972;DHT22;10147;16.402;102.848;2023-08-07T08:39:54;28.30;99.90
19972;DHT22;10147;16.402;102.848;2023-08-07T08:42:24;28.30;99.90
19972;DHT22;10147;16.402;102.848;2023-08-07T08:44:56;28.40;99.90
19972;DHT22;10147;16.402;102.848;2023-08-07T08:47:27;28.40;99.90
19972;DHT22;10147;16.402;102.848;2023-08-07T08:50:07;28.40;99.90
19972;DHT22;10147;16.402;102.848;2023-08-07T08:52:41;28.40;99.90
19972;DHT22;10147;16.402;102.848;2023-08-07T08:55:12;28.30;99.90
19972;DHT22;10147;16.402;102.848;2023-08-07T08:57:42;28.40;99.90
19972;DHT22;10147;16.402;102.848;2023-08-07T09:00:13;28.30;99.90
19972;DHT22;10147;16.402;102.848;2023-08-07T09:02:55;28.40;99.90
19972;DHT22;10147;16.402;102.848;2023-08-07T09:05:25;28.30;99.90
19972;DHT22;10147;16.402;102.848;2023-08-07T09:07:55;28.30;99.90
19972;DHT22;10147;16.402;102.848;2023-08-07T09:10:26;28.30;99.90
19972;DHT22;10147;16.402;102.848;2023-08-07T09:13:03;28.20;99.90
19972;DHT22;10147;16.402;102.848;2023-08-07T09:15:36;28.20;99.90
19972;DHT22;10147;16.402;102.848;2023-08-07T09:18:09;28.20;99.90
19972;DHT22;10147;16.402;102.848;2023-08-07T09:20:40;28.20;99.90
19972;DHT22;10147;16.402;102.848;2023-08-07T09:23:11;28.20;99.90
19972;DHT22;10147;16.402;102.848;2023-08-07T09:25:41;28.20;99.90
19972;DHT22;10147;16.402;102.848;2023-08-07T09:28:12;28.20;99.90
19972;DHT22;10147;16.402;102.848;2023-08-07T09:30:42;28.10;99.90
19972;DHT22;10147;16.402;102.848;2023-08-07T09:33:14;28.10;99.90
19972;DHT22;10147;16.402;102.848;2023-08-07T09:35:45;28.10;99.90
19972;DHT22;10147;16.402;102.848;2023-08-07T09:38:15;28.00;99.90
19972;DHT22;10147;16.402;102.848;2023-08-07T09:40:45;28.00;99.90
19972;DHT22;10147;16.402;102.848;2023-08-07T09:43:22;28.00;99.90
19972;DHT22;10147;16.402;102.848;2023-08-07T09:45:52;28.00;99.90
19972;DHT22;10147;16.402;102.848;2023-08-07T09:48:25;28.00;99.90
19972;DHT22;10147;16.402;102.848;2023-08-07T09:51:02;28.00;99.90
19972;DHT22;10147;16.402;102.848;2023-08-07T09:53:35;28.00;99.90
19972;DHT22;10147;16.402;102.848;2023-08-07T09:56:06;28.00;99.90
19972;DHT22;10147;16.402;102.848;2023-08-07T09:58:36;28.00;99.90
19972;DHT22;10147;16.402;102.848;2023-08-07T10:01:08;27.90;99.90
19972;DHT22;10147;16.402;102.848;2023-08-07T10:03:39;27.80;99.90
19972;DHT22;10147;16.402;102.848;2023-08-07T10:06:10;27.80;99.90
19972;DHT22;10147;16.402;102.848;2023-08-07T10:08:42;27.80;99.90
19972;DHT22;10147;16.402;102.848;2023-08-07T10:11:13;27.80;99.90
19972;DHT22;10147;16.402;102.848;2023-08-07T10:13:47;27.80;99.90
19972;DHT22;10147;16.402;102.848;2023-08-07T10:16:18;27.80;99.90
19972;DHT22;10147;16.402;102.848;2023-08-07T10:18:48;27.80;99.90
19972;DHT22;10147;16.402;102.848;2023-08-07T10:21:18;27.80;99.90
19972;DHT22;10147;16.402;102.848;2023-08-07T10:23:52;27.80;99.90
19972;DHT22;10147;16.402;102.848;2023-08-07T10:26:23;27.80;99.90
19972;DHT22;10147;16.402;102.848;2023-08-07T10:28:54;27.80;99.90
19972;DHT22;10147;16.402;102.848;2023-08-07T10:31:24;27.80;99.90
19972;DHT22;10147;16.402;102.848;2023-08-07T10:33:55;27.80;99.90
19972;DHT22;10147;16.402;102.848;2023-08-07T10:36:32;27.70;99.90
19972;DHT22;10147;16.402;102.848;2023-08-07T10:39:09;27.70;99.90
19972;DHT22;10147;16.402;102.848;2023-08-07T10:41:46;27.70;99.90
19972;DHT22;10147;16.402;102.848;2023-08-07T10:44:20;27.70;99.90
19972;DHT22;10147;16.402;102.848;2023-08-07T10:46:55;27.70;99.90
19972;DHT22;10147;16.402;102.848;2023-08-07T10:49:46;27.70;99.90
19972;DHT22;10147;16.402;102.848;2023-08-07T10:52:16;27.70;99.90
19972;DHT22;10147;16.402;102.848;2023-08-07T10:54:49;27.70;99.90
19972;DHT22;10147;16.402;102.848;2023-08-07T10:57:20;27.70;99.90
19972;DHT22;10147;16.402;102.848;2023-08-07T11:00:00;27.70;99.90
19972;DHT22;10147;16.402;102.848;2023-08-07T11:02:37;27.70;99.90
19972;DHT22;10147;16.402;102.848;2023-08-07T11:05:10;27.70;99.90
19972;DHT22;10147;16.402;102.848;2023-08-07T11:07:42;27.70;99.90
19972;DHT22;10147;16.402;102.848;2023-08-07T11:10:14;27.70;99.90
19972;DHT22;10147;16.402;102.848;2023-08-07T11:12:45;27.70;99.90
19972;DHT22;10147;16.402;102.848;2023-08-07T11:15:15;27.60;99.90
19972;DHT22;10147;16.402;102.848;2023-08-07T11:17:45;27.60;99.90
19972;DHT22;10147;16.402;102.848;2023-08-07T11:20:15;27.60;99.90
19972;DHT22;10147;16.402;102.848;2023-08-07T11:22:46;27.60;99.90
19972;DHT22;10147;16.402;102.848;2023-08-07T11:25:15;27.50;99.90
19972;DHT22;10147;16.402;102.848;2023-08-07T11:27:45;27.60;99.90
19972;DHT22;10147;16.402;102.848;2023-08-07T11:30:15;27.60;99.90
19972;DHT22;10147;16.402;102.848;2023-08-07T11:32:46;27.60;99.90
19972;DHT22;10147;16.402;102.848;2023-08-07T11:35:15;27.50;99.90
19972;DHT22;10147;16.402;102.848;2023-08-07T11:37:47;27.50;99.90
19972;DHT22;10147;16.402;102.848;2023-08-07T11:40:17;27.50;99.90
19972;DHT22;10147;16.402;102.848;2023-08-07T11:42:47;27.50;99.90
19972;DHT22;10147;16.402;102.848;2023-08-07T11:45:17;27.50;99.90
19972;DHT22;10147;16.402;102.848;2023-08-07T11:47:47;27.50;99.90
19972;DHT22;10147;16.402;102.848;2023-08-07T11:50:17;27.40;99.90
19972;DHT22;10147;16.402;102.848;2023-08-07T11:52:47;27.40;99.90
19972;DHT22;10147;16.402;102.848;2023-08-07T11:55:18;27.30;99.90
19972;DHT22;10147;16.402;102.848;2023-08-07T11:57:48;27.30;99.90
19972;DHT22;10147;16.402;102.848;2023-08-07T12:00:19;27.30;99.90
19972;DHT22;10147;16.402;102.848;2023-08-07T12:02:49;27.30;99.90
19972;DHT22;10147;16.402;102.848;2023-08-07T12:05:19;27.30;99.90
19972;DHT22;10147;16.402;102.848;2023-08-07T12:07:50;27.30;99.90
19972;DHT22;10147;16.402;102.848;2023-08-07T12:10:23;27.20;99.90
19972;DHT22;10147;16.402;102.848;2023-08-07T12:12:59;27.20;99.90
19972;DHT22;10147;16.402;102.848;2023-08-07T12:15:34;27.20;99.90
19972;DHT22;10147;16.402;102.848;2023-08-07T12:18:07;27.20;99.90
19972;DHT22;10147;16.402;102.848;2023-08-07T12:20:38;27.20;99.90
19972;DHT22;10147;16.402;102.848;2023-08-07T12:23:15;27.20;99.90
19972;DHT22;10147;16.402;102.848;2023-08-07T12:25:48;27.20;99.90
19972;DHT22;10147;16.402;102.848;2023-08-07T12:28:19;27.20;99.90
19972;DHT22;10147;16.402;102.848;2023-08-07T12:30:51;27.20;99.90
19972;DHT22;10147;16.402;102.848;2023-08-07T12:33:21;27.20;99.90
19972;DHT22;10147;16.402;102.848;2023-08-07T12:35:52;27.20;99.90
19972;DHT22;10147;16.402;102.848;2023-08-07T12:38:23;27.20;99.90
19972;DHT22;10147;16.402;102.848;2023-08-07T12:40:53;27.10;99.90
19972;DHT22;10147;16.402;102.848;2023-08-07T12:43:23;27.10;99.90
19972;DHT22;10147;16.402;102.848;2023-08-07T12:45:53;27.10;99.90
19972;DHT22;10147;16.402;102.848;2023-08-07T12:48:44;27.10;99.90
19972;DHT22;10147;16.402;102.848;2023-08-07T12:51:13;27.10;99.90
19972;DHT22;10147;16.402;102.848;2023-08-07T12:53:44;27.10;99.90
19972;DHT22;10147;16.402;102.848;2023-08-07T12:56:14;27.10;99.90
19972;DHT22;10147;16.402;102.848;2023-08-07T12:58:48;27.10;99.90
19972;DHT22;10147;16.402;102.848;2023-08-07T13:01:22;27.10;99.90
19972;DHT22;10147;16.402;102.848;2023-08-07T13:03:54;27.10;99.90
19972;DHT22;10147;16.402;102.848;2023-08-07T13:06:24;27.00;99.90
19972;DHT22;10147;16.402;102.848;2023-08-07T13:08:54;27.00;99.90
19972;DHT22;10147;16.402;102.848;2023-08-07T13:11:24;27.00;99.90
19972;DHT22;10147;16.402;102.848;2023-08-07T13:13:53;27.00;99.90
19972;DHT22;10147;16.402;102.848;2023-08-07T13:16:24;27.00;99.90
19972;DHT22;10147;16.402;102.848;2023-08-07T13:18:54;27.00;99.90
19972;DHT22;10147;16.402;102.848;2023-08-07T13:21:25;26.90;99.90
19972;DHT22;10147;16.402;102.848;2023-08-07T13:23:57;26.90;99.90
19972;DHT22;10147;16.402;102.848;2023-08-07T13:26:27;26.90;99.90
19972;DHT22;10147;16.402;102.848;2023-08-07T13:28:57;26.90;99.90
19972;DHT22;10147;16.402;102.848;2023-08-07T13:31:27;26.80;99.90
19972;DHT22;10147;16.402;102.848;2023-08-07T13:33:57;26.80;99.90
19972;DHT22;10147;16.402;102.848;2023-08-07T13:36:26;26.80;99.90
19972;DHT22;10147;16.402;102.848;2023-08-07T13:38:56;26.90;99.90
19972;DHT22;10147;16.402;102.848;2023-08-07T13:41:27;26.80;99.90
19972;DHT22;10147;16.402;102.848;2023-08-07T13:43:57;26.70;99.90
19972;DHT22;10147;16.402;102.848;2023-08-07T13:46:27;26.70;99.90
19972;DHT22;10147;16.402;102.848;2023-08-07T13:48:57;26.70;99.90
19972;DHT22;10147;16.402;102.848;2023-08-07T13:51:30;26.70;99.90
19972;DHT22;10147;16.402;102.848;2023-08-07T13:54:01;26.70;99.90
19972;DHT22;10147;16.402;102.848;2023-08-07T13:56:31;26.70;99.90
19972;DHT22;10147;16.402;102.848;2023-08-07T13:59:00;26.70;99.90
19972;DHT22;10147;16.402;102.848;2023-08-07T14:01:31;26.70;99.90
19972;DHT22;10147;16.402;102.848;2023-08-07T14:04:03;26.70;99.90
19972;DHT22;10147;16.402;102.848;2023-08-07T14:06:33;26.70;99.90
19972;DHT22;10147;16.402;102.848;2023-08-07T14:09:03;26.60;99.90
19972;DHT22;10147;16.402;102.848;2023-08-07T14:11:33;26.70;99.90
19972;DHT22;10147;16.402;102.848;2023-08-07T14:14:03;26.70;99.90
19972;DHT22;10147;16.402;102.848;2023-08-07T14:16:32;26.60;99.90
19972;DHT22;10147;16.402;102.848;2023-08-07T14:19:05;26.70;99.90
19972;DHT22;10147;16.402;102.848;2023-08-07T14:21:35;26.60;99.90
19972;DHT22;10147;16.402;102.848;2023-08-07T14:24:06;26.60;99.90
19972;DHT22;10147;16.402;102.848;2023-08-07T14:26:36;26.60;99.90
19972;DHT22;10147;16.402;102.848;2023-08-07T14:29:06;26.60;99.90
19972;DHT22;10147;16.402;102.848;2023-08-07T14:31:35;26.70;99.90
19972;DHT22;10147;16.402;102.848;2023-08-07T14:34:08;26.60;99.90
19972;DHT22;10147;16.402;102.848;2023-08-07T14:36:38;26.70;99.90
19972;DHT22;10147;16.402;102.848;2023-08-07T14:39:10;26.70;99.90
19972;DHT22;10147;16.402;102.848;2023-08-07T14:41:39;26.60;99.90
19972;DHT22;10147;16.402;102.848;2023-08-07T14:44:10;26.60;99.90
19972;DHT22;10147;16.402;102.848;2023-08-07T14:46:39;26.60;99.90
19972;DHT22;10147;16.402;102.848;2023-08-07T14:49:11;26.60;99.90
19972;DHT22;10147;16.402;102.848;2023-08-07T14:51:40;26.60;99.90
19972;DHT22;10147;16.402;102.848;2023-08-07T14:54:10;26.60;99.90
19972;DHT22;10147;16.402;102.848;2023-08-07T14:56:40;26.70;99.90
19972;DHT22;10147;16.402;102.848;2023-08-07T14:59:10;26.70;99.90
19972;DHT22;10147;16.402;102.848;2023-08-07T15:01:41;26.60;99.90
19972;DHT22;10147;16.402;102.848;2023-08-07T15:04:11;26.60;99.90
19972;DHT22;10147;16.402;102.848;2023-08-07T15:06:44;26.60;99.90
19972;DHT22;10147;16.402;102.848;2023-08-07T15:09:18;26.60;99.90
19972;DHT22;10147;16.402;102.848;2023-08-07T15:11:49;26.60;99.90
19972;DHT22;10147;16.402;102.848;2023-08-07T15:14:19;26.60;99.90
19972;DHT22;10147;16.402;102.848;2023-08-07T15:16:49;26.60;99.90
19972;DHT22;10147;16.402;102.848;2023-08-07T15:19:19;26.60;99.90
19972;DHT22;10147;16.402;102.848;2023-08-07T15:21:51;26.50;99.90
19972;DHT22;10147;16.402;102.848;2023-08-07T15:24:21;26.60;99.90
19972;DHT22;10147;16.402;102.848;2023-08-07T15:26:51;26.50;99.90